Terminal Aerodrome Forecast
Issued by NWS

Home | Current Version | Previous Version | Text Only | Print | Product List | Glossary Off
Versions: 1 2 3 4 5 6 7 8 9 10 11 12 13 14

238
FTUS43 KICT 222330
TAFHUT
TAF
KHUT 222330Z 2300/2324 17011KT P6SM SCT250
     FM230300 14006KT P6SM SCT250
     FM230600 35009KT P6SM VCSH BKN070
     FM230900 01015G24KT P6SM VCSH BKN060
     FM231700 01015G23KT P6SM SCT120=

USA.gov is the U.S. government's official web portal to all federal, state and local government web resources and services.